M I D A S
Marine Information and Data Acquisition System
Tripno 368 of the Zeeleeuw from 2002-12-12 07:33:05 to 2002-12-12 14:35:26
Back to CruiseResearch ActivitiesStationsMapUnderway DataData graphs

EquipmentUnitsComment
TimeDGPSUTC
LatitudeDGPSDM.mWGS84
LongitudeDGPSDM.mWGS84
HeadingGyrodeg 
SOGDGPSknotsSpeed over ground
COGDGPSdegCourse over ground
DepthEcho soundermeters200 kHz
Missing or incorrect values are displayed as -999
Navigation data collected by the RV Zeeleeuw from 2002-12-12 07:33:05 to 2002-12-12 14:35:26
Time Latitude Longitude Heading SOG COG Depth
2002-12-12 07:34:08 51°13.536 2°56.278 67.5 1.7 62.6 9.3
2002-12-12 07:35:08 51°13.544 2°56.29 41.3 0.3 246.8 9.4
2002-12-12 07:36:09 51°13.527 2°56.269 31.7 1.4 214.7 -999
2002-12-12 07:37:08 51°13.527 2°56.261 5.3 0.8 358.6 8.5
2002-12-12 07:38:08 51°13.516 2°56.261 358 1.2 177.5 -999
2002-12-12 07:39:09 51°13.512 2°56.258 348.2 0.6 336.1 11.9
2002-12-12 07:40:09 51°13.529 2°56.237 310 1.5 312.6 11.4
2002-12-12 07:41:09 51°13.544 2°56.199 300.8 1.8 298.4 11.3
2002-12-12 07:42:08 51°13.559 2°56.152 301.7 2.1 297.3 11.3
2002-12-12 07:43:09 51°13.582 2°56.082 303.5 3.5 297.6 10.8
2002-12-12 07:44:09 51°13.619 2°55.987 307.3 4.7 302.6 12.5
2002-12-12 07:45:09 51°13.665 2°55.869 306.8 5.5 302.7 10.8
2002-12-12 07:46:09 51°13.723 2°55.748 315 6 310.1 13
2002-12-12 07:47:09 51°13.806 2°55.646 338.3 6.6 331.4 11.9
2002-12-12 07:48:09 51°13.912 2°55.571 339.5 7 335.8 11.7
2002-12-12 07:49:09 51°14.019 2°55.495 340.2 7.1 335.8 11.9
2002-12-12 07:50:09 51°14.125 2°55.411 337.5 7.2 332.5 11.4
2002-12-12 07:51:09 51°14.224 2°55.304 322.8 7.2 318.5 11.4
2002-12-12 07:52:09 51°14.313 2°55.147 313.8 9 309.3 11.3
2002-12-12 07:53:09 51°14.406 2°54.931 308.5 10.4 303.4 11.3
2002-12-12 07:54:09 51°14.517 2°54.658 302 13 302.7 11.1
2002-12-12 07:55:09 51°14.625 2°54.352 299 13.3 297.6 11.2
2002-12-12 07:56:07 51°14.726 2°54.05 299.3 13.3 298.7 11.2
2002-12-12 07:57:09 51°14.832 2°53.723 298.8 13.5 296.3 11
2002-12-12 07:58:09 51°14.934 2°53.399 299.8 13.8 296.8 11.3
2002-12-12 07:59:09 51°15.037 2°53.072 299.7 13.8 296.9 11.6
2002-12-12 08:00:09 51°15.142 2°52.749 300 13.7 297.9 12.1
2002-12-12 08:01:09 51°15.248 2°52.43 299.7 13.6 297.9 12.7
2002-12-12 08:02:09 51°15.328 2°52.097 287.8 13.4 286.9 13.1
2002-12-12 08:03:09 51°15.389 2°51.757 288.2 13.3 286.6 13.5
2002-12-12 08:04:09 51°15.438 2°51.414 282 13.3 280.1 13.8
2002-12-12 08:05:09 51°15.465 2°51.064 278.2 13.3 277 14.2
2002-12-12 08:06:09 51°15.493 2°50.713 279.3 13.3 276.3 14.1
2002-12-12 08:07:09 51°15.526 2°50.365 284.2 13.4 281.5 14.1
2002-12-12 08:08:09 51°15.57 2°50.019 284.5 13.3 281.6 14
2002-12-12 08:09:07 51°15.629 2°49.692 287.7 13.3 286.1 14.2
2002-12-12 08:10:09 51°15.689 2°49.343 287.7 13.1 284.7 12.4
2002-12-12 08:11:09 51°15.747 2°49.003 288.7 13.4 285.4 11.9
2002-12-12 08:12:09 51°15.805 2°48.655 288 13.6 285.3 12.9
2002-12-12 08:13:09 51°15.863 2°48.308 287.7 13.6 284.3 14.7
2002-12-12 08:14:08 51°15.921 2°47.967 288 13.4 284.9 16.4
2002-12-12 08:15:09 51°15.982 2°47.619 288.7 13.4 286.2 17.1
2002-12-12 08:16:08 51°16.038 2°47.284 288 13.4 285.7 17.3
2002-12-12 08:17:08 51°16.102 2°46.946 290.7 13.3 289.2 16
2002-12-12 08:18:09 51°16.188 2°46.614 295 13.4 292.3 13.3
2002-12-12 08:19:09 51°16.294 2°46.301 303.3 13.4 300.6 11
2002-12-12 08:20:09 51°16.449 2°46.035 319 13.9 315.8 11
2002-12-12 08:21:09 51°16.614 2°45.772 317.5 14 314.4 11.6
2002-12-12 08:22:09 51°16.779 2°45.506 317.8 14.1 314.3 13.3
2002-12-12 08:23:09 51°16.944 2°45.242 319.3 14.1 316.1 13.7
2002-12-12 08:24:09 51°17.112 2°44.982 319.5 14.1 316.2 15.5
2002-12-12 08:25:09 51°17.283 2°44.726 319 14.2 316.7 17.2
2002-12-12 08:26:09 51°17.448 2°44.486 324 11.4 322 17.5
2002-12-12 08:27:09 51°17.532 2°44.339 295.2 5.6 298.9 18.4
2002-12-12 08:28:09 51°17.547 2°44.289 249.3 0.6 321.9 18.5
2002-12-12 08:29:09 51°17.551 2°44.278 223.8 0.4 288.8 18.1
2002-12-12 08:30:09 51°17.55 2°44.267 216.3 0.4 259.9 18.2
2002-12-12 08:31:09 51°17.548 2°44.257 209.8 0.5 231.1 18.1
2002-12-12 08:32:09 51°17.543 2°44.25 194.5 0.4 209.1 18.4
2002-12-12 08:33:09 51°17.538 2°44.249 182 0.3 166.3 18.1
2002-12-12 08:34:09 51°17.533 2°44.252 170 0.3 148.4 18.2
2002-12-12 08:35:09 51°17.531 2°44.258 158.2 0.3 111.2 18.1
2002-12-12 08:36:09 51°17.529 2°44.268 153.5 0.4 102.5 18.2
2002-12-12 08:37:09 51°17.527 2°44.279 154.7 0.4 116 18
2002-12-12 08:38:09 51°17.523 2°44.288 163.5 0.4 132.6 17.9
2002-12-12 08:39:09 51°17.518 2°44.296 170.2 0.4 133.8 17.6
2002-12-12 08:40:09 51°17.514 2°44.3 171.8 0.2 144.8 18.3
2002-12-12 08:41:09 51°17.511 2°44.306 161 0.3 112.8 18.1
2002-12-12 08:42:09 51°17.51 2°44.315 146.7 0.4 93.8 18.1
2002-12-12 08:43:09 51°17.511 2°44.327 132.7 0.5 80.4 17.7
2002-12-12 08:44:09 51°17.514 2°44.341 123.5 0.6 54.8 17.8
2002-12-12 08:45:09 51°17.52 2°44.35 116 0.6 30.4 17.9
2002-12-12 08:46:09 51°17.529 2°44.354 106.2 0.7 6.4 18.1
2002-12-12 08:47:09 51°17.541 2°44.354 91 0.7 351 18.3
2002-12-12 08:48:09 51°17.552 2°44.351 75.5 0.8 346.3 18
2002-12-12 08:49:09 51°17.565 2°44.351 69 0.8 5.6 17.9
2002-12-12 08:50:09 51°17.58 2°44.356 63.7 0.9 12 17.7
2002-12-12 08:51:09 51°17.595 2°44.359 51.3 0.9 5.4 17.9
2002-12-12 08:52:09 51°17.611 2°44.362 38.8 1.1 9.3 18
2002-12-12 08:53:09 51°17.653 2°44.367 343.7 3.1 348.8 16.9
2002-12-12 08:54:09 51°17.686 2°44.319 288.5 2.4 299.6 18.3
2002-12-12 08:55:09 51°17.717 2°44.269 332 1.7 336.8 18.5
2002-12-12 08:56:09 51°17.734 2°44.265 2.7 1.2 354.2 18.5
2002-12-12 08:57:09 51°17.755 2°44.267 23 1.4 9.5 18.6
2002-12-12 08:58:09 51°17.778 2°44.277 37.3 1.4 19.8 18.5
2002-12-12 08:59:09 51°17.799 2°44.29 49.7 1.4 25.7 17.1
2002-12-12 09:00:09 51°17.816 2°44.306 64 1.2 31.2 18
2002-12-12 09:01:09 51°17.833 2°44.327 71.8 1.3 40 18
2002-12-12 09:02:09 51°17.849 2°44.35 78.3 1.3 43.7 17.9
2002-12-12 09:03:09 51°17.863 2°44.376 86.5 1.3 51.6 18.3
2002-12-12 09:04:09 51°17.876 2°44.4 93.5 1.3 48.9 18.5
2002-12-12 09:05:09 51°17.887 2°44.426 98.5 1.3 51.8 16.8
2002-12-12 09:06:09 51°17.894 2°44.45 108.2 1 65.5 18.3
2002-12-12 09:07:09 51°17.9 2°44.475 119.5 1.1 76.7 17.6
2002-12-12 09:08:09 51°17.911 2°44.576 67.3 5.3 63.2 19
2002-12-12 09:09:09 51°17.977 2°44.719 56.2 7.4 50.1 19.5
2002-12-12 09:10:09 51°18.063 2°44.868 53.8 7.6 47.6 19.7
2002-12-12 09:11:09 51°18.152 2°45.018 54.7 7.9 47.9 20.2
2002-12-12 09:12:09 51°18.24 2°45.173 54 7.9 47.3 20.3
2002-12-12 09:13:09 51°18.329 2°45.329 53.8 8 47.1 20.7
2002-12-12 09:14:09 51°18.42 2°45.486 54.3 8 47.8 21.1
2002-12-12 09:15:09 51°18.51 2°45.642 54.8 8 47.1 21.3
2002-12-12 09:16:09 51°18.599 2°45.795 54.2 7.8 47.3 21.2
2002-12-12 09:17:09 51°18.677 2°45.931 55 6.2 47.6 21.4
2002-12-12 09:18:09 51°18.746 2°46.044 54.3 5.7 45.6 21.8
2002-12-12 09:19:09 51°18.815 2°46.158 55.3 6.3 46.8 22
2002-12-12 09:20:09 51°18.889 2°46.281 54.2 6.6 45.5 21.9
2002-12-12 09:21:09 51°18.965 2°46.406 54.7 6.5 46.1 21.9
2002-12-12 09:22:09 51°19.041 2°46.53 54.7 6.6 45.9 21.6
2002-12-12 09:23:09 51°19.118 2°46.658 54.2 6.6 46.2 21.8
2002-12-12 09:24:09 51°19.198 2°46.782 52.2 6.6 43.8 21.9
2002-12-12 09:25:09 51°19.278 2°46.904 53 6.6 44 21.9
2002-12-12 09:26:09 51°19.357 2°47.027 53 6.5 44.2 21.6
2002-12-12 09:27:09 51°19.436 2°47.145 52.7 6.7 42.9 22.2
2002-12-12 09:28:09 51°19.518 2°47.27 52.8 6.7 44.3 22.1
2002-12-12 09:29:09 51°19.6 2°47.393 52.8 6.9 43.9 22.1
2002-12-12 09:30:09 51°19.672 2°47.501 52.2 5.2 41.6 22.4
2002-12-12 09:31:09 51°19.73 2°47.57 43.2 4 33.5 22.5
2002-12-12 09:32:09 51°19.776 2°47.619 44.5 3 32.5 22.5
2002-12-12 09:33:09 51°19.813 2°47.655 49.7 2.3 32.4 22.5
2002-12-12 09:34:09 51°19.839 2°47.683 61.8 1.7 34.1 22.5
2002-12-12 09:35:09 51°19.86 2°47.705 67.8 1.4 33.8 22.5
2002-12-12 09:36:09 51°19.879 2°47.718 66 1.1 14.9 22.6
2002-12-12 09:37:09 51°19.896 2°47.722 57.7 0.9 3.6 22.7
2002-12-12 09:38:09 51°19.909 2°47.721 47.8 0.7 352.7 22.4
2002-12-12 09:39:09 51°19.919 2°47.719 39.3 0.6 351 22.5
2002-12-12 09:40:09 51°19.929 2°47.714 29.2 0.6 342.6 22.5
2002-12-12 09:41:09 51°19.938 2°47.711 18.8 0.5 338.6 22.4
2002-12-12 09:42:09 51°19.945 2°47.709 10.7 0.4 348.5 22.6
2002-12-12 09:43:09 51°19.951 2°47.707 3 0.4 352.3 22.6
2002-12-12 09:44:09 51°19.957 2°47.705 355.5 0.3 339.6 22.3
2002-12-12 09:45:09 51°19.963 2°47.704 347.2 0.4 2.3 22.5
2002-12-12 09:46:09 51°19.97 2°47.704 339.7 0.5 354.7 22.5
2002-12-12 09:47:09 51°19.979 2°47.702 338 0.5 354.5 22.3
2002-12-12 09:48:09 51°19.987 2°47.699 337 0.6 348.9 22.3
2002-12-12 09:49:09 51°19.998 2°47.691 326.8 1 336.2 22.3
2002-12-12 09:50:09 51°20.018 2°47.672 312.5 1.5 319.7 22.3
2002-12-12 09:51:09 51°20.036 2°47.641 289.2 1.5 303.4 22.2
2002-12-12 09:52:09 51°20.043 2°47.61 260.5 1.2 280.7 21.9
2002-12-12 09:53:09 51°20.042 2°47.583 235.3 1 252.8 22.1
2002-12-12 09:54:09 51°20.035 2°47.564 211.5 0.8 232.7 22
2002-12-12 09:55:09 51°20.027 2°47.553 194.8 0.6 216.6 22
2002-12-12 09:56:09 51°20.019 2°47.547 180.8 0.5 200.1 21.9
2002-12-12 09:57:09 51°20.012 2°47.546 166.5 0.4 169.8 21.8
2002-12-12 09:58:09 51°20.008 2°47.55 152 0.3 141.9 21.8
2002-12-12 09:59:09 51°20.004 2°47.559 143.2 0.4 120.9 22.1
2002-12-12 10:00:09 51°20 2°47.571 130.8 0.5 100.1 21.9
2002-12-12 10:01:09 51°20.002 2°47.586 114.3 0.7 72.2 21.9
2002-12-12 10:02:09 51°20.006 2°47.603 106.7 0.7 66.8 21.9
2002-12-12 10:03:09 51°20.016 2°47.62 91.2 0.9 43.4 22.3
2002-12-12 10:04:09 51°20.03 2°47.638 78 1.2 36.1 22.2
2002-12-12 10:05:09 51°20.047 2°47.657 71.3 1.3 32.4 22
2002-12-12 10:06:09 51°20.065 2°47.677 82.8 1.2 38.2 22
2002-12-12 10:07:09 51°20.078 2°47.7 97.2 1.1 50.5 22
2002-12-12 10:08:09 51°20.086 2°47.723 117.8 0.9 67.3 22.3
2002-12-12 10:09:09 51°20.087 2°47.743 141.7 0.7 100.4 22
2002-12-12 10:10:09 51°20.082 2°47.756 169.5 0.5 137.3 22.2
2002-12-12 10:11:09 51°20.072 2°47.756 199.8 0.7 201.4 22.1
2002-12-12 10:12:09 51°20.065 2°47.737 229 1 246 22.1
2002-12-12 10:13:09 51°20.064 2°47.706 254.5 1.3 272.9 22.1
2002-12-12 10:14:09 51°20.072 2°47.669 278.5 1.6 294.3 22
2002-12-12 10:15:09 51°20.087 2°47.626 288 2.1 298.4 21.7
2002-12-12 10:16:09 51°20.094 2°47.517 270 7.1 269.5 21.2
2002-12-12 10:17:09 51°20.093 2°47.218 272.2 12.8 269.4 19.7
2002-12-12 10:18:09 51°20.089 2°46.872 272.5 13.2 268 17.4
2002-12-12 10:19:09 51°20.076 2°46.511 266 13.7 262.8 14.5
2002-12-12 10:20:09 51°20.041 2°46.153 259.3 13.5 257.1 13.2
2002-12-12 10:21:09 51°19.949 2°45.827 239.7 13.6 237.8 14.1
2002-12-12 10:22:09 51°19.821 2°45.535 234.2 13.4 232.1 13.7
2002-12-12 10:23:09 51°19.693 2°45.245 238.3 13.5 236.1 17.2
2002-12-12 10:24:09 51°19.571 2°44.947 238.5 13.1 237.1 20.4
2002-12-12 10:25:09 51°19.45 2°44.648 239.5 13.6 237.2 21.3
2002-12-12 10:26:09 51°19.329 2°44.349 237.3 13.4 236.3 22
2002-12-12 10:27:09 51°19.206 2°44.051 238.3 13.5 236.9 22.3
2002-12-12 10:28:09 51°19.104 2°43.843 210.7 6.4 213.4 22.6
2002-12-12 10:29:09 51°19.041 2°43.838 156.5 3 156.2 22.4
2002-12-12 10:30:09 51°18.999 2°43.871 172.3 3.6 169 22.3
2002-12-12 10:31:09 51°18.926 2°43.878 190.3 4.6 186.5 22.4
2002-12-12 10:32:09 51°18.856 2°43.874 154.3 4 150.4 22.3
2002-12-12 10:33:09 51°18.842 2°43.894 124.8 0.5 109.9 22.3
2002-12-12 10:34:09 51°18.846 2°43.904 97.2 0.6 41.8 22.4
2002-12-12 10:35:09 51°18.858 2°43.917 76 1 32.3 22.1
2002-12-12 10:36:09 51°18.872 2°43.935 77.8 1 37.2 22.1
2002-12-12 10:37:09 51°18.886 2°43.948 82 0.9 25.6 22.2
2002-12-12 10:38:09 51°18.899 2°43.957 80 0.9 22.5 22.2
2002-12-12 10:39:09 51°18.912 2°43.963 78.3 0.7 13.4 22.1
2002-12-12 10:40:09 51°18.925 2°43.964 73.8 0.8 0.4 22
2002-12-12 10:41:09 51°18.939 2°43.962 68.8 0.8 356.2 21.9
2002-12-12 10:42:09 51°18.952 2°43.957 63 0.8 343.4 22.1
2002-12-12 10:43:09 51°18.965 2°43.952 56.7 0.8 333.7 22.3
2002-12-12 10:44:09 51°18.977 2°43.941 50.5 0.8 342.1 22.1
2002-12-12 10:45:09 51°18.992 2°43.938 39.7 1 350.2 22.1
2002-12-12 10:46:09 51°19.045 2°43.921 328.5 5.2 330.1 21.9
2002-12-12 10:47:09 51°19.032 2°43.795 209.8 5.6 215.5 22.5
2002-12-12 10:48:09 51°18.959 2°43.803 170.8 3.5 168.7 22.5
2002-12-12 10:49:09 51°18.913 2°43.809 165.8 2.3 166.9 22.2
2002-12-12 10:50:09 51°18.898 2°43.82 142.3 0.1 288.7 22.4
2002-12-12 10:51:09 51°18.898 2°43.821 123.7 0.2 48.5 22.3
2002-12-12 10:52:09 51°18.904 2°43.828 94.2 0.6 34.1 22.4
2002-12-12 10:53:09 51°18.915 2°43.843 89 0.9 46.4 22
2002-12-12 10:54:09 51°18.925 2°43.861 100.5 0.9 48.3 22.4
2002-12-12 10:55:09 51°18.933 2°43.879 114.2 0.7 63.7 21.8
2002-12-12 10:56:09 51°18.937 2°43.893 127.2 0.5 70.3 22.3
2002-12-12 10:57:09 51°18.937 2°43.902 145.7 0.2 108.7 22
2002-12-12 10:58:09 51°18.934 2°43.904 163.3 0.3 178.4 22.1
2002-12-12 10:59:09 51°18.929 2°43.9 156.2 0.3 209.9 22.2
2002-12-12 11:00:09 51°18.922 2°43.898 163.2 0.6 183.4 22.2
2002-12-12 11:01:09 51°18.909 2°43.892 187.3 1.1 205.1 21.9
2002-12-12 11:02:09 51°18.892 2°43.868 217.5 1.6 231.8 22.2
2002-12-12 11:03:09 51°18.878 2°43.822 243.2 2.1 250.5 22.3
2002-12-12 11:04:09 51°18.876 2°43.764 266.3 2.2 271.5 22.3
2002-12-12 11:05:09 51°18.886 2°43.7 293.2 2.5 289.9 22.4
2002-12-12 11:06:09 51°18.91 2°43.643 316.2 2.4 312.9 22.8
2002-12-12 11:07:09 51°18.941 2°43.604 337.7 2.3 326.4 22.7
2002-12-12 11:08:09 51°18.974 2°43.583   2.1 343 22.6
2002-12-12 11:09:09 51°19.005 2°43.578 20.5 1.8 356.8 22.4
2002-12-12 11:10:09 51°19.032 2°43.579 39.3 1.5 5.7 22.3
2002-12-12 11:11:09 51°19.057 2°43.592 52 2.4 30.4 22.7
2002-12-12 11:12:09 51°19.124 2°43.6 338 4.7 334.7 22.9
2002-12-12 11:13:09 51°19.141 2°43.492 243.8 4.5 248.6 23.2
2002-12-12 11:14:09 51°19.088 2°43.378 226.7 5.5 228.8 23.4
2002-12-12 11:15:09 51°19.026 2°43.271 227.2 5.5 228.7 23.4
2002-12-12 11:16:09 51°18.966 2°43.161 227.8 5.5 229.3 23.2
2002-12-12 11:17:09 51°18.908 2°43.05 228.2 5.3 229.7 23.3
2002-12-12 11:18:09 51°18.86 2°42.953 227.5 4.4 230.8 23.3
2002-12-12 11:19:09 51°18.819 2°42.867 228 4 232.9 23.4
2002-12-12 11:20:09 51°18.782 2°42.785 227.5 3.8 232.9 23.3
2002-12-12 11:21:09 51°18.748 2°42.705 228.3 3.6 234.7 23.3
2002-12-12 11:22:09 51°18.714 2°42.627 228.8 3.6 235.3 23.5
2002-12-12 11:23:09 51°18.678 2°42.553 222.5 3.5 230 23.5
2002-12-12 11:24:09 51°18.64 2°42.487 216.3 3.3 224.8 23.3
2002-12-12 11:25:09 51°18.6 2°42.429 211.7 3.3 220.3 23.2
2002-12-12 11:26:09 51°18.554 2°42.37 212 4.5 216.9 23.3
2002-12-12 11:27:09 51°18.466 2°42.272 212.8 7.3 213.9 23.2
2002-12-12 11:28:09 51°18.358 2°42.159 212.7 7.9 213.3 23.1
2002-12-12 11:29:09 51°18.248 2°42.042 212.2 7.8 213.1 23
2002-12-12 11:30:09 51°18.149 2°41.935 213.8 7 214.2 23.3
2002-12-12 11:31:09 51°18.056 2°41.831 213.7 6.8 214.7 23.3
2002-12-12 11:32:09 51°17.965 2°41.727 213.8 6.8 215.8 23.2
2002-12-12 11:33:09 51°17.87 2°41.638 204.3 6.6 207 23
2002-12-12 11:34:09 51°17.776 2°41.561 205 6.1 208.7 23
2002-12-12 11:35:09 51°17.691 2°41.484 208.7 5.8 211.9 23.1
2002-12-12 11:36:09 51°17.612 2°41.401 210 5.7 213.7 22.8
2002-12-12 11:37:09 51°17.534 2°41.318 209.7 5.7 212.8 22.9
2002-12-12 11:38:09 51°17.454 2°41.234 209 5.7 212.4 22.9
2002-12-12 11:39:09 51°17.377 2°41.171 186.7 4.5 194.1 23
2002-12-12 11:40:09 51°17.326 2°41.18 144.2 2.4 155.2 23.2
2002-12-12 11:41:09 51°17.307 2°41.208 121.7 1.3 125.5 23.2
2002-12-12 11:42:09 51°17.302 2°41.234 108.5 0.9 103.5 23.3
2002-12-12 11:43:09 51°17.302 2°41.253 110.7 0.6 88.1 23.1
2002-12-12 11:44:09 51°17.301 2°41.265 119.8 0.4 105.5 23.2
2002-12-12 11:45:09 51°17.298 2°41.271 123.3 0.2 133.1 23.2
2002-12-12 11:46:09 51°17.296 2°41.274 125.8 0.2 175.9 23
2002-12-12 11:47:09 51°17.294 2°41.275 124.5 0.1 190.2 23.1
2002-12-12 11:48:09 51°17.294 2°41.276 120.7 0.3 154 23.1
2002-12-12 11:49:09 51°17.294 2°41.276 121.3 0.1 217.3 23.3
2002-12-12 11:50:09 51°17.294 2°41.273 121.7 0.1 271.8 23.1
2002-12-12 11:51:09 51°17.294 2°41.27 117.2 0.1 319.7 23.1
2002-12-12 11:52:09 51°17.295 2°41.267 115.7 0.2 326.5 23.2
2002-12-12 11:53:09 51°17.295 2°41.263 116.8 0.2 224.9 23.3
2002-12-12 11:54:09 51°17.294 2°41.258 127.7 0.2 260.1 23.1
2002-12-12 11:55:09 51°17.293 2°41.251 139 0.3 257 23.2
2002-12-12 11:56:09 51°17.29 2°41.242 147.3 0.5 253.6 23.2
2002-12-12 11:57:09 51°17.285 2°41.226 156.2 0.7 249.4 23.2
2002-12-12 11:58:09 51°17.277 2°41.21 154.3 0.8 226.9 23.1
2002-12-12 11:59:09 51°17.268 2°41.198 143.3 0.7 209.1 23.1
2002-12-12 12:00:09 51°17.261 2°41.192 125.2 0.5 196.1 23
2002-12-12 12:01:09 51°17.259 2°41.192 100.7 0.1 37.2 23.1
2002-12-12 12:02:09 51°17.268 2°41.196 80 0.7 16.9 23.1
2002-12-12 12:03:09 51°17.275 2°41.202 83.3 0.6 32.7 23.1
2002-12-12 12:04:09 51°17.283 2°41.211 88.8 0.5 45.9 22.8
2002-12-12 12:05:09 51°17.288 2°41.222 94.8 0.5 49.7 23.2
2002-12-12 12:06:09 51°17.291 2°41.231 99.8 0.4 56.5 23.2
2002-12-12 12:07:09 51°17.293 2°41.241 103.8 0.4 70.6 23.1
2002-12-12 12:08:09 51°17.294 2°41.251 111.3 0.4 89 23.2
2002-12-12 12:09:09 51°17.292 2°41.26 112.7 0.4 107 22.8
2002-12-12 12:10:09 51°17.29 2°41.27 109.2 0.4 93.1 23.1
2002-12-12 12:11:09 51°17.287 2°41.283 112.8 0.5 108.4 23.2
2002-12-12 12:12:09 51°17.283 2°41.295 111 0.5 110 23.2
2002-12-12 12:13:09 51°17.28 2°41.307 112.3 0.4 115 23.1
2002-12-12 12:14:09 51°17.278 2°41.317 111 0.4 109.2 23.1
2002-12-12 12:15:09 51°17.277 2°41.323 109.5 0.1 114.7 23.1
2002-12-12 12:16:09 51°17.277 2°41.323 108.3 0.1 325.5 23.3
2002-12-12 12:17:09 51°17.279 2°41.318 105.8 0.3 293.7 23.1
2002-12-12 12:18:09 51°17.282 2°41.308 100.5 0.4 291.7 23.3
2002-12-12 12:19:09 51°17.286 2°41.297 95.5 0.5 301.1 23.1
2002-12-12 12:20:09 51°17.289 2°41.292 103.8   274.8 23.1
2002-12-12 12:21:09 51°17.288 2°41.295 120.8 0.3 158.8 23.1
2002-12-12 12:22:09 51°17.275 2°41.302 150.7 1.1 174.4 23
2002-12-12 12:23:09 51°17.252 2°41.29 189.3 1.6 212.4 23.2
2002-12-12 12:24:09 51°17.233 2°41.251 229.2 2.1 241.5 23
2002-12-12 12:25:09 51°17.221 2°41.197 250 2.2 257.2 23
2002-12-12 12:26:09 51°17.214 2°41.141 257.2 2.2 262 23.1
2002-12-12 12:27:09 51°17.209 2°41.082 262.2 2.3 263.8 22.9
2002-12-12 12:28:09 51°17.202 2°41.007 258.2 4.4 256.1 22.7
2002-12-12 12:29:09 51°17.15 2°40.882 222.2 6.3 226.5 22.4
2002-12-12 12:30:09 51°17.031 2°40.802 189.5 9.5 190.9 22.3
2002-12-12 12:31:09 51°16.858 2°40.75 190.5 10.7 190.8 22.2
2002-12-12 12:32:09 51°16.698 2°40.693 192.5 9.6 193.7 21.6
2002-12-12 12:33:09 51°16.544 2°40.636 192.8 9.5 193.2 21.6
2002-12-12 12:34:09 51°16.391 2°40.578 192.3 9.5 193.2 20.7
2002-12-12 12:35:09 51°16.237 2°40.521 192.8 9.5 193.4 19.4
2002-12-12 12:36:09 51°16.083 2°40.463 192.8 9.5 193.3 19.2
2002-12-12 12:37:09 51°15.93 2°40.404 194.7 9.5 194.7 16.1
2002-12-12 12:38:09 51°15.778 2°40.335 196.3 9.5 196.3 16.3
2002-12-12 12:39:09 51°15.625 2°40.266 196.2 9.5 195.7 15.5
2002-12-12 12:40:09 51°15.473 2°40.2 195.3 9.4 195.1 14.8
2002-12-12 12:41:09 51°15.322 2°40.132 195.5 9.3 195.6 14.8
2002-12-12 12:42:09 51°15.173 2°40.063 196.3 9.4 196.2 13.2
2002-12-12 12:43:09 51°15.023 2°39.995 195.7 9.4 196 12.4
2002-12-12 12:44:09 51°14.873 2°39.925 195.8 9.4 196.1 13.6
2002-12-12 12:45:09 51°14.724 2°39.854 195.3 9.3 196.6 13
2002-12-12 12:46:09 51°14.578 2°39.854 162.7 8.6 164.8 12.6
2002-12-12 12:47:09 51°14.48 2°39.985 120.8 6.8 122.2 11.9
2002-12-12 12:48:09 51°14.465 2°40.13 87.2 5.2 83 12
2002-12-12 12:49:09 51°14.482 2°40.266 84 5.2 77.9 11.9
2002-12-12 12:50:09 51°14.499 2°40.398 85.3 4.7 79.5 12.6
2002-12-12 12:51:09 51°14.509 2°40.499 94.2 3.4 87.3 13
2002-12-12 12:52:09 51°14.511 2°40.581 88.3 2.9 82.5 12.6
2002-12-12 12:53:09 51°14.52 2°40.654 88 2.8 81.5 12.5
2002-12-12 12:54:09 51°14.506 2°40.725 136.3 4.1 134.3 12.4
2002-12-12 12:55:09 51°14.43 2°40.779 152.3 4.7 155.1 12.8
2002-12-12 12:56:09 51°14.337 2°40.879 144.3 6.8 144.5 13
2002-12-12 12:57:09 51°14.247 2°40.941 159.7 5.9 163.3 13.6
2002-12-12 12:58:09 51°14.157 2°40.996 152.3 5.8 155.6 13.5
2002-12-12 12:59:09 51°14.077 2°41.052 154 3.6 162.1 14.4
2002-12-12 13:00:09 51°14.069 2°41.038 164.3 0.7 260.6 -999
2002-12-12 13:01:10 51°14.06 2°41.023 146.2 0.9 209.1 -999
2002-12-12 13:02:09 51°14.048 2°41.019 116.5 0.5 190.9 14.3
2002-12-12 13:03:09 51°14.047 2°41.015 82.7 0.3 294.8 14.5
2002-12-12 13:04:09 51°14.051 2°41.006 66.8 0.5 302.7 14.3
2002-12-12 13:05:09 51°14.058 2°40.993 63.3 0.7 308.8 14.5
2002-12-12 13:06:09 51°14.064 2°40.977 65.5 0.7 300.2 14.2
2002-12-12 13:07:09 51°14.069 2°40.963 68 0.6 291.9 14
2002-12-12 13:08:09 51°14.074 2°40.948 71.5 0.6 294.2 14.2
2002-12-12 13:09:09 51°14.079 2°40.938 74.3 0.4 6.3 14.1
2002-12-12 13:10:09 51°14.088 2°40.96 79 1.3 63.8 14
2002-12-12 13:11:09 51°14.096 2°40.986 80.8 1 61.7 13.8
2002-12-12 13:12:09 51°14.102 2°41.003 84 0.6 62.4 13.9
2002-12-12 13:13:09 51°14.107 2°41.011 85.8 0.3 28.1 14
2002-12-12 13:14:09 51°14.11 2°41.013 87.7 0.2 359 13.9
2002-12-12 13:15:09 51°14.113 2°41.01 86.7 0.3 319.6 13.7
2002-12-12 13:16:09 51°14.115 2°41.006 85.3 0.2 307.7 13.9
2002-12-12 13:17:09 51°14.118 2°40.998 84.5 0.3 297.6 14
2002-12-12 13:18:09 51°14.122 2°40.989 83.8 0.4 294.6 13.7
2002-12-12 13:19:09 51°14.124 2°40.979 87.7 0.4 275.9 13.8
2002-12-12 13:20:09 51°14.124 2°40.976 99.2   100.4 13.4
2002-12-12 13:21:09 51°14.118 2°40.984 120.5 0.6 136.3 13.9
2002-12-12 13:22:09 51°14.102 2°40.995 138.7 1.3 163.4 14
2002-12-12 13:23:09 51°14.075 2°41.006 151 1.8 169.6 14.4
2002-12-12 13:24:09 51°14.041 2°41.012 152.5 2.1 172.1 14.7
2002-12-12 13:25:09 51°14.012 2°41.026 134 1.6 156.3 15
2002-12-12 13:26:09 51°13.995 2°41.044 123.3 1.2 141.9 15.3
2002-12-12 13:27:09 51°13.979 2°41.058 131 1.2 157.7 15.4
2002-12-12 13:28:09 51°13.96 2°41.065 140 1.1 172.1 15.6
2002-12-12 13:29:09 51°13.937 2°41.069 148.8 1.9 169.1 15.6
2002-12-12 13:30:09 51°13.874 2°41.169 106.2 7.7 107.2 15.6
2002-12-12 13:31:09 51°13.898 2°41.438 79.8 11.1 75.5 16.2
2002-12-12 13:32:09 51°13.941 2°41.715 80.2 10.6 76.2 16.2
2002-12-12 13:33:09 51°13.982 2°41.977 80.7 9.8 76.1 15.9
2002-12-12 13:34:09 51°14.019 2°42.225 80.7 9.5 76.9 15.5
2002-12-12 13:35:11 51°14.056 2°42.476 80 9.5 76.6 15.3
2002-12-12 13:36:11 51°14.094 2°42.719 80.8 9.5 76.4 15.2
2002-12-12 13:37:11 51°14.131 2°42.963 81 9.5 76.7 14.9
2002-12-12 13:38:09 51°14.166 2°43.192 81 8.6 76.1 14.7
2002-12-12 13:39:11 51°14.199 2°43.412 80.7 8.1 76.4 14.6
2002-12-12 13:40:10 51°14.23 2°43.617 80.5 8.1 76.1 14.1
2002-12-12 13:41:11 51°14.27 2°43.825 76.2 8.1 70.7 13.8
2002-12-12 13:42:11 51°14.313 2°44.029 77 8.1 71.4 13.3
2002-12-12 13:43:11 51°14.357 2°44.233 76.2 8.1 71.3 12.7
2002-12-12 13:44:11 51°14.399 2°44.436 76.3 8.1 71.5 12
2002-12-12 13:45:11 51°14.442 2°44.642 76.8 8.2 72.2 11.4
2002-12-12 13:46:09 51°14.484 2°44.839 76.3 8.1 71.7 10.8
2002-12-12 13:47:11 51°14.528 2°45.052 76.3 8.2 71.6 10.3
2002-12-12 13:48:11 51°14.571 2°45.259 76.7 8.2 72.1 9.7
2002-12-12 13:49:11 51°14.613 2°45.465 77.5 8.3 72.1 8.9
2002-12-12 13:50:11 51°14.646 2°45.677 81 8.3 76.7 8.4
2002-12-12 13:51:11 51°14.677 2°45.89 80.7 8.3 76.6 8.1
2002-12-12 13:52:11 51°14.708 2°46.105 81.2 8.3 77.5 8.3
2002-12-12 13:53:11 51°14.74 2°46.319 81.3 8.3 77 8.6
2002-12-12 13:54:09 51°14.771 2°46.524 80.5 8.2 75.9 9.4
2002-12-12 13:55:11 51°14.805 2°46.743 81 8.2 75.8 10.1
2002-12-12 13:56:11 51°14.838 2°46.955 80.3 8.2 75.9 10.8
2002-12-12 13:57:11 51°14.871 2°47.167 81 8.3 75.7 11.3
2002-12-12 13:58:12 51°14.907 2°47.382 80.7 8.2 75 12.1
2002-12-12 13:59:11 51°14.941 2°47.59 81.2 8.2 75.1 12.5
2002-12-12 14:00:09 51°14.975 2°47.796 80.7 8.3 74.8 12.5
2002-12-12 14:01:11 51°15.012 2°48.016 81.2 8.3 75.8 12.6
2002-12-12 14:02:09 51°15.045 2°48.222 80 8.3 75.1 12.6
2002-12-12 14:03:12 51°15.081 2°48.445 81 8.3 76 12.5
2002-12-12 14:04:11 51°15.115 2°48.654 80.5 8.3 75.6 12.5
2002-12-12 14:05:11 51°15.15 2°48.869 80.3 8.3 75 12.5
2002-12-12 14:06:11 51°15.186 2°49.083 80.7 8.3 75.3 12.4
2002-12-12 14:07:11 51°15.222 2°49.296 81 8.3 75 12.6
2002-12-12 14:08:11 51°15.256 2°49.511 80.8 8.4 75.8 12.5
2002-12-12 14:09:11 51°15.29 2°49.725 80.5 8.3 75.6 12.5
2002-12-12 14:10:11 51°15.323 2°49.938 80.8 8.3 76.1 12.6
2002-12-12 14:11:09 51°15.354 2°50.145 80.7 8.4 76.2 12.6
2002-12-12 14:12:11 51°15.389 2°50.37 80.5 8.4 75.8 12.7
2002-12-12 14:13:11 51°15.414 2°50.55 82 6.1 76.8 12.7
2002-12-12 14:14:11 51°15.435 2°50.69 80.3 5.1 75.8 12.7
2002-12-12 14:15:09 51°15.453 2°50.81 80.8 4.7 77 12.7
2002-12-12 14:16:11 51°15.472 2°50.936 81 4.6 76.5 12.7
2002-12-12 14:17:11 51°15.491 2°51.058 80.5 4.7 76.8 12.6
2002-12-12 14:18:11 51°15.51 2°51.188 80.7 6 76.7 12.6
2002-12-12 14:19:09 51°15.527 2°51.388 96.7 9 93.2 12.4
2002-12-12 14:20:11 51°15.465 2°51.627 125.7 9.8 123.9 12.2
2002-12-12 14:21:13 51°15.366 2°51.849 123.5 9.9 123.4 11.9
2002-12-12 14:22:13 51°15.287 2°52.076 113.7 9.8 112.9 11.5
2002-12-12 14:23:13 51°15.229 2°52.318 112.7 9.8 111 11.1
2002-12-12 14:24:13 51°15.167 2°52.559 113.5 9.8 112.8 10.7
2002-12-12 14:25:17 51°15.1 2°52.814 113 9.8 113 10.1
2002-12-12 14:26:17 51°15.037 2°53.054 113.7 9.8 113.2 10
2002-12-12 14:27:18 51°14.973 2°53.299 113.2 9.8 112.3 9.8
2002-12-12 14:28:17 51°14.908 2°53.534 116.3 9.9 115.9 9.5
2002-12-12 14:29:17 51°14.835 2°53.77 116.7 9.9 116.6 9.3
2002-12-12 14:30:19 51°14.759 2°54.013 118.2 10 117.1 9.4
2002-12-12 14:31:21 51°14.68 2°54.256 116.5 9.9 115.8 9.5
2002-12-12 14:32:21 51°14.606 2°54.491 122.2 10 121.8 9.5
2002-12-12 14:33:21 51°14.518 2°54.715 124.2 9.9 122.6 9.5
2002-12-12 14:34:19 51°14.428 2°54.935 124 10.5 121.8 9.5
2002-12-12 14:35:20 51°14.327 2°55.159 134.8 9.2 130.5 9.7